• Join FlightAware (Why Join?)
  • Login
  • US Flag 
11:19PM EST


 

Airport Tracker/Info


-or-


 

Live Flight TrackerFlight Track Log ✈ N516QS ✈ 16-Jul-2013 ✈ CYHZ - KDLH

Flight Track Log - Related Links

Times and Time Zones

All times are in EDT time to prevent confusion due to time zone crossing. See the N516QS flight status page for this flight to view local times or setup timezone preferences in your user account.

Time Position Orientation Groundspeed Altitude Reporting Facility
EDT Latitude Longitude Course Direction KTS MPH feet Rate Location/Type
07:22AM 44.8833 -63.5167 270° West 190 219 2,000  Level Moncton Center
07:23AM 44.8833 -63.6167 270° West 260 299 6,300 4,200 Climbing Moncton Center
07:24AM 44.8833 -63.7333 270° West 270 311 10,400 3,300 Climbing Moncton Center
07:25AM 44.8833 -63.8500 270° West 340 391 13,000 3,060 Climbing Moncton Center
07:26AM 44.8833 -64.0000 270° West 350 403 16,600 3,300 Climbing Moncton Center
07:27AM 44.8833 -64.1333 270° West 360 414 19,700 2,940 Climbing Moncton Center
07:28AM 44.9167 -64.4148 270° West  Level FlightAware Approximate
07:28AM 44.8833 -64.3000 270° West 370 426 22,500  Level Moncton Center
07:29AM 44.8833 -64.4500 270° West 390 449 24,900 2,340 Climbing Moncton Center
07:30AM 44.8833 -64.6167 270° West 400 460 27,200 2,220 Climbing Moncton Center
07:31AM 44.8833 -64.7667 270° West 410 472 29,400 2,100 Climbing Moncton Center
07:32AM 44.8833 -64.9333 270° West 430 495 31,500 2,400 Climbing Moncton Center
07:33AM 44.9000 -65.1000 278° West 430 495 34,200 2,400 Climbing Moncton Center
07:34AM 44.9000 -65.2667 270° West 420 483 36,300 2,160 Climbing Moncton Center
07:35AM 44.9000 -65.4333 270° West 420 483 38,600 1,980 Climbing Moncton Center
07:36AM 44.9000 -65.6000 270° West 420 483 40,300 1,740 Climbing Moncton Center
07:37AM 44.9000 -65.7667 270° West 410 472 42,100 1,320 Climbing Moncton Center
07:38AM 44.9000 -65.9333 270° West 410 472 43,000 420 Climbing Moncton Center
07:39AM 44.9000 -66.1000 270° West 420 483 43,000  Level Moncton Center
07:40AM 44.8833 -66.2667 262° West 440 506 43,000  Level Moncton Center
07:41AM 44.8833 -66.4500 270° West 450 518 43,000  Level Moncton Center
07:42AM 44.9000 -66.6167 278° West 440 506 43,000  Level Moncton Center
07:43AM 44.9167 -66.7833 278° West 440 506 43,000  Level Moncton Center
07:44AM 44.9500 -66.9500 286° West 440 506 43,000  Level Moncton Center
07:45AM 44.9667 -67.1167 278° West 440 506 43,000  Level Moncton Center
07:46AM 45.0000 -67.2833 286° West 440 506 43,000  Level Moncton Center
07:47AM 45.0333 -67.4500 286° West 440 506 43,000  Level Moncton Center
07:48AM 45.0667 -67.6333 284° West 440 506 43,000  Level Moncton Center
07:49AM 45.0667 -67.8000 270° West 440 506 43,000  Level Moncton Center
07:50AM 45.1000 -67.9833 285° West 440 506 43,000  Level Moncton Center
07:51AM 45.1333 -68.1500 286° West 450 518 43,000  Level Moncton Center
07:52AM 45.1500 -68.3167 278° West 450 518 43,000  Level Moncton Center
07:53AM 45.1833 -68.4833 286° West 450 518 43,000  Level Moncton Center
07:54AM 45.2167 -68.6500 286° West 450 518 43,000  Level Moncton Center
07:55AM 45.2333 -68.8333 277° West 450 518 43,000  Level Moncton Center
07:56AM 45.2500 -69.0000 278° West 450 518 43,000  Level Moncton Center
07:57AM 45.2667 -69.1833 277° West 450 518 43,000  Level Moncton Center
07:58AM 45.3000 -69.3500 286° West 450 518 43,000  Level Moncton Center
07:59AM 45.3167 -69.5333 277° West 440 506 43,000  Level Moncton Center
08:00AM 45.3500 -69.6833 288° West 440 506 43,000  Level Moncton Center
08:01AM 45.3667 -69.8500 278° West 440 506 43,000 240 Level Moncton Center
08:02AM 45.4000 -70.0500 283° West 450 518 43,500 480 Climbing Moncton Center
08:03AM 45.4167 -70.2167 278° West 450 518 44,000 600 Climbing Moncton Center
08:04AM 45.4500 -70.3833 286° West 450 518 44,700 480 Climbing Moncton Center
08:05AM 45.4500 -70.5833 270° West 450 518 45,000 120 Climbing Moncton Center
08:06AM 45.4833 -70.7500 286° West 450 518 45,000  Level Moncton Center
08:07AM 45.5000 -70.9167 278° West 450 518 45,000  Level Moncton Center
08:08AM 45.5167 -71.0833 278° West 460 529 45,000  Level Moncton Center
08:09AM 45.5500 -71.2833 283° West 450 518 45,000  Level Moncton Center
08:10AM 45.5667 -71.4500 278° West 450 518 45,000  Level Moncton Center
08:11AM 45.5833 -71.6500 277° West 450 518 45,000  Level Moncton Center
08:12AM 45.6167 -71.8167 286° West 450 518 45,000 60 Level Moncton Center
08:13AM 45.6333 -71.9833 278° West 450 518 45,200 300 Climbing Moncton Center
08:14AM 45.6500 -72.1667 277° West 450 518 45,600 360 Climbing Moncton Center
08:15AM 45.6667 -72.3333 278° West 460 529 46,000 360 Climbing Moncton Center
08:16AM 45.6833 -72.5167 277° West 450 518 46,400 360 Climbing Moncton Center
08:17AM 45.7000 -72.7000 277° West 450 518 46,800 300 Climbing Moncton Center
08:18AM 45.7167 -72.8833 277° West 450 518 47,000 60 Climbing Moncton Center
08:19AM 45.7333 -73.0667 277° West 450 518 47,000  Level Moncton Center
08:20AM 45.7667 -73.2333 286° West 460 529 47,000  Level Moncton Center
08:21AM 45.7833 -73.4000 278° West 460 529 47,000  Level Moncton Center
08:22AM 45.8000 -73.6000 277° West 450 518 47,000  Level Moncton Center
08:23AM 45.8167 -73.7667 278° West 450 518 47,000  Level Moncton Center
08:24AM 45.8333 -73.9500 277° West 450 518 47,000  Level Moncton Center
08:25AM 45.8500 -74.0000 296° West 470 541 47,000  Level Toronto Center
08:26AM 45.8667 -74.2000 277° West 450 518 47,000  Level Toronto Center
08:27AM 45.8833 -74.3667 278° West 450 518 47,000  Level Toronto Center
08:28AM 45.9000 -74.5500 278° West 450 518 47,000  Level Toronto Center
08:29AM 45.9167 -74.7167 278° West 450 518 47,000  Level Toronto Center
08:30AM 45.9333 -74.9000 278° West 450 518 47,000  Level Toronto Center
08:31AM 45.9333 -75.0833 270° West 450 518 47,000  Level Toronto Center
08:32AM 45.9667 -75.2667 285° West 450 518 47,000  Level Toronto Center
08:33AM 45.9667 -75.4333 270° West 450 518 47,000  Level Toronto Center
08:34AM 46.0000 -75.6000 286° West 450 518 47,000  Level Toronto Center
08:35AM 46.0167 -75.7833 278° West 460 529 47,000  Level Toronto Center
08:36AM 46.0167 -75.9833 270° West 450 518 47,000  Level Toronto Center
08:37AM 46.0500 -76.1500 286° West 460 529 47,000  Level Toronto Center
08:38AM 46.0500 -76.3333 270° West 450 518 47,000  Level Toronto Center
08:39AM 46.0667 -76.5333 277° West 460 529 47,000  Level Toronto Center
08:40AM 46.0833 -76.7000 278° West 460 529 47,000  Level Toronto Center
08:41AM 46.1000 -76.8833 278° West 460 529 47,000  Level Toronto Center
08:42AM 46.1000 -77.0667 270° West 460 529 47,000  Level Toronto Center
08:43AM 46.1167 -77.2500 278° West 460 529 47,000  Level Toronto Center
08:44AM 46.1333 -77.4167 278° West 460 529 47,000  Level Toronto Center
08:45AM 46.1500 -77.6167 277° West 460 529 47,000  Level Toronto Center
08:46AM 46.1500 -77.8000 270° West 460 529 47,000  Level Toronto Center
08:47AM 46.1667 -77.9667 278° West 460 529 47,000  Level Toronto Center
08:48AM 46.1833 -78.1667 277° West 460 529 47,000  Level Toronto Center
08:49AM 46.1833 -78.3333 270° West 460 529 47,000  Level Toronto Center
08:50AM 46.2167 -78.5167 285° West 460 529 47,000  Level Toronto Center
08:51AM 46.2167 -78.7167 270° West 460 529 47,000  Level Toronto Center
08:52AM 46.2333 -78.8833 278° West 460 529 47,000  Level Toronto Center
08:53AM 46.2333 -79.0833 270° West 470 541 47,000  Level Toronto Center
08:54AM 46.2500 -79.2500 278° West 470 541 47,000  Level Toronto Center
08:55AM 46.2500 -79.4333 270° West 460 529 47,000  Level Toronto Center
08:56AM 46.2667 -79.6333 277° West 460 529 47,000  Level Toronto Center
08:57AM 46.2667 -79.8000 270° West 470 541 47,000  Level Toronto Center
08:58AM 46.2833 -80.0000 277° West 460 529 47,000  Level Toronto Center
08:59AM 46.2833 -80.1833 270° West 460 529 47,000  Level Toronto Center
09:00AM 46.3000 -80.3500 278° West 460 529 47,000  Level Toronto Center
09:01AM 46.3167 -80.5500 277° West 460 529 47,000  Level Toronto Center
09:02AM 46.3167 -80.7167 270° West 460 529 47,000  Level Toronto Center
09:03AM 46.3167 -80.9167 270° West 460 529 47,000  Level Toronto Center
09:04AM 46.3167 -81.1000 270° West 460 529 47,000  Level Toronto Center
09:05AM 46.3333 -81.3000 277° West 460 529 47,000  Level Toronto Center
09:06AM 46.3333 -81.4667 270° West 460 529 47,000  Level Toronto Center
09:07AM 46.3500 -81.6667 277° West 460 529 47,000  Level Toronto Center
09:08AM 46.3500 -81.8500 270° West 460 529 47,000  Level Toronto Center
09:09AM 46.3500 -82.0500 270° West 460 529 47,000  Level Toronto Center
09:10AM 46.3667 -82.2167 278° West 460 529 47,000  Level Toronto Center
09:11AM 46.3667 -82.4167 270° West 470 541 47,000  Level Toronto Center
09:12AM 46.3833 -82.6000 278° West 460 529 47,000  Level Toronto Center
09:13AM 46.3667 -82.7667 262° West 460 529 47,000  Level Toronto Center
09:14AM 46.3833 -82.9667 277° West 470 541 47,000  Level Toronto Center
09:15AM 46.3833 -83.1667 270° West 470 541 47,000  Level Toronto Center
09:16AM 46.3833 -83.3333 270° West 460 529 47,000  Level Toronto Center
09:17AM 46.3833 -83.5167 270° West 460 529 47,000  Level Toronto Center
09:18AM 46.4000 -83.7167 277° West 460 529 47,000  Level Toronto Center
09:19AM 46.3833 -83.9167 263° West 460 529 47,000  Level Toronto Center
09:20AM 46.4125 -84.1547 280° West 464 534 47,000  Level Minneapolis Center
09:22AM 46.4189 -84.3769 272° West 463 533 47,000  Level Minneapolis Center
09:23AM 46.4392 -84.5992 278° West 464 534 47,000  Level Minneapolis Center
09:24AM 46.4533 -84.7803 277° West 457 526 47,000  Level Minneapolis Center
09:25AM 46.4689 -84.9653 277° West 461 531 47,000  Level Minneapolis Center
09:26AM 46.4878 -85.1883 277° West 466 536 47,000  Level Minneapolis Center
09:27AM 46.5025 -85.3728 277° West 464 534 47,000  Level Minneapolis Center
09:28AM 46.5164 -85.5575 276° West 464 534 47,000  Level Minneapolis Center
09:29AM 46.5314 -85.7436 277° West 465 535 47,000  Level Minneapolis Center
09:30AM 46.5450 -85.9292 276° West 465 535 47,000  Level Minneapolis Center
09:31AM 46.5589 -86.1131 276° West 462 532 47,000  Level Minneapolis Center
09:32AM 46.5742 -86.3350 276° West 462 532 47,000  Level Minneapolis Center
09:33AM 46.5878 -86.5197 276° West 463 533 47,000  Level Minneapolis Center
09:34AM 46.6006 -86.7050 276° West 464 534 47,000  Level Minneapolis Center
09:35AM 46.6153 -86.9267 276° West 463 533 47,000  Level Minneapolis Center
09:36AM 46.6275 -87.1142 275° West 466 536 47,000  Level Minneapolis Center
09:37AM 46.6394 -87.3014 275° West 467 537 47,000  Level Minneapolis Center
09:38AM 46.6528 -87.5239 275° West 464 534 47,000  Level Minneapolis Center
09:39AM 46.6642 -87.7078 275° West 464 534 47,000 -300 Level Minneapolis Center
09:40AM 46.6750 -87.8939 275° West 463 533 46,400 -1,380 Descending Minneapolis Center
09:41AM 46.6856 -88.0775 275° West 458 527 44,200 -2,100 Descending Minneapolis Center
09:43AM 46.6953 -88.2564 275° West 449 517 42,200 -2,160 Descending Minneapolis Center
09:44AM 46.7069 -88.4717 275° West 447 514 39,800 -2,100 Descending Minneapolis Center
09:45AM 46.7158 -88.6503 274° West 445 512 37,900 -1,920 Descending Minneapolis Center
09:46AM 46.7250 -88.8328 274° West 453 521 35,900 -1,980 Descending Minneapolis Center
09:47AM 46.7344 -89.0186 274° West 458 527 33,900 -1,980 Descending Minneapolis Center
09:48AM 46.7428 -89.1992 274° West 452 520 31,900 -1,980 Descending Minneapolis Center
09:49AM 46.7497 -89.3808 273° West 453 521 29,900 -2,100 Descending Minneapolis Center
09:50AM 46.7594 -89.5881 274° West 430 495 27,700 -1,980 Descending Minneapolis Center
09:51AM 46.7644 -89.7550 273° West 415 478 25,900 -1,800 Descending Minneapolis Center
09:52AM 46.7714 -89.9139 274° West 399 459 24,100 -1,500 Descending Minneapolis Center
09:53AM 46.7758 -90.0381 273° West 388 447 22,800 -1,620 Descending Minneapolis Center
09:54AM 46.7833 -90.2203 274° West 378 435 20,800 -1,800 Descending Minneapolis Center
09:55AM 46.7889 -90.3708 273° West 373 429 19,100 -1,500 Descending Minneapolis Center
09:56AM 46.7950 -90.5450 273° West 358 412 17,400 -1,680 Descending Minneapolis Center
09:57AM 46.8011 -90.7133 273° West 346 398 15,300 -1,800 Descending Minneapolis Center
09:58AM 46.8047 -90.8494 272° West 338 389 13,800 -1,440 Descending Minneapolis Center
09:59AM 46.8097 -90.9842 273° West 334 384 12,400 -1,320 Descending Minneapolis Center
10:00AM 46.8083 -91.1039 269° West 312 359 11,100 -1,200 Descending Minneapolis Center
10:01AM 46.8122 -91.2108 273° West 289 333 10,000 -1,260 Descending Minneapolis Center
10:02AM 46.8178 -91.3394 274° West 274 315 8,600 -1,260 Descending Minneapolis Center
10:03AM 46.8211 -91.4425 273° West 265 305 7,400 -960 Descending Minneapolis Center
10:04AM 46.8236 -91.5322 272° West 261 300 6,700 -720 Descending Minneapolis Center
10:06AM 46.7834 -91.7292 270° West  Level FlightAware Approximate
10:13AM 46.8333 -92.1833 19° North  Level FlightAware Approximate
10:14AM 46.8421 -92.1936 19° North  Level Estimated
10:15AM 46.8421 -92.1936 19° North  Level Estimated
10:16AM 46.8421 -92.1936 19° North  Level Estimated
10:17AM 46.8421 -92.1936 19° North  Level Estimated
10:18AM 46.8421 -92.1936 19° North  Level Estimated
10:19AM 46.8421 -92.1936 19° North  Level Estimated
10:20AM 46.8421 -92.1936 19° North  Level Estimated
10:21AM 46.8421 -92.1936 19° North  Level Estimated